createdAt,value
2023-02-05T00:00:38.946Z,3.47
2023-02-05T00:03:05.340Z,3.33
2023-02-05T00:05:32.092Z,3.17
2023-02-05T00:07:58.629Z,3.33
2023-02-05T00:10:24.923Z,3.30
2023-02-05T00:12:51.289Z,3.41
2023-02-05T00:15:17.602Z,3.36
2023-02-05T00:17:43.916Z,3.20
2023-02-05T00:20:10.800Z,3.01
2023-02-05T00:22:37.108Z,3.05
2023-02-05T00:25:03.674Z,3.21
2023-02-05T00:27:29.963Z,2.95
2023-02-05T00:29:56.256Z,2.98
2023-02-05T00:32:22.614Z,2.80
2023-02-05T00:34:49.451Z,2.88
2023-02-05T00:37:15.821Z,3.05
2023-02-05T00:39:42.229Z,2.98
2023-02-05T00:42:08.996Z,2.96
2023-02-05T00:44:35.381Z,3.02
2023-02-05T00:47:01.762Z,2.99
2023-02-05T00:49:28.161Z,2.97
2023-02-05T00:51:54.467Z,3.15
2023-02-05T00:54:20.768Z,3.18
2023-02-05T00:56:47.085Z,3.14
2023-02-05T00:59:13.586Z,3.20
2023-02-05T01:01:39.912Z,3.26
2023-02-05T01:04:06.287Z,3.13
2023-02-05T01:06:32.635Z,3.19
2023-02-05T01:08:58.964Z,3.21
2023-02-05T01:11:25.392Z,3.25
2023-02-05T01:13:51.861Z,3.45
2023-02-05T01:16:18.249Z,3.41
2023-02-05T01:18:45.133Z,3.35
2023-02-05T01:21:11.636Z,3.37
2023-02-05T01:23:37.958Z,3.40
2023-02-05T01:26:04.426Z,3.45
2023-02-05T01:28:30.760Z,3.38
2023-02-05T01:30:57.278Z,3.35
2023-02-05T01:33:23.614Z,3.31
2023-02-05T01:35:50.120Z,3.52
2023-02-05T01:38:16.485Z,3.37
2023-02-05T01:40:42.997Z,3.37
2023-02-05T01:43:14.243Z,3.47
2023-02-05T01:45:50.658Z,3.25
2023-02-05T01:48:22.193Z,3.56
2023-02-05T01:50:53.411Z,3.38
2023-02-05T01:53:21.934Z,3.38
2023-02-05T01:55:57.072Z,3.32
2023-02-05T01:58:27.231Z,3.02
2023-02-05T02:00:53.819Z,3.26
2023-02-05T02:03:21.191Z,3.20
2023-02-05T02:05:47.557Z,3.23
2023-02-05T02:08:13.923Z,2.98
2023-02-05T02:10:43.626Z,2.95
2023-02-05T02:13:12.064Z,3.04
2023-02-05T02:15:40.048Z,2.99
2023-02-05T02:18:26.017Z,2.94
2023-02-05T02:21:14.171Z,2.98
2023-02-05T02:23:59.386Z,3.04
2023-02-05T02:27:14.951Z,3.00
2023-02-05T02:30:08.754Z,3.05
2023-02-05T02:32:43.381Z,2.97
2023-02-05T02:35:28.522Z,3.09
2023-02-05T02:38:20.575Z,3.19
2023-02-05T02:40:52.879Z,3.21
2023-02-05T02:43:27.920Z,3.10
2023-02-05T02:46:09.066Z,3.12
2023-02-05T02:48:38.646Z,3.17
2023-02-05T02:51:09.156Z,3.28
2023-02-05T02:53:39.764Z,3.17
2023-02-05T02:56:09.825Z,3.04
2023-02-05T02:58:44.796Z,3.19
2023-02-05T03:01:12.670Z,3.08
2023-02-05T03:03:44.402Z,3.06
2023-02-05T03:06:12.831Z,3.17
2023-02-05T03:08:52.886Z,3.13
2023-02-05T03:11:19.407Z,3.17
2023-02-05T03:13:46.620Z,2.97
2023-02-05T03:16:15.553Z,2.93
2023-02-05T03:18:42.633Z,2.96
2023-02-05T03:21:19.231Z,3.12
2023-02-05T03:23:45.656Z,3.23
2023-02-05T03:26:30.553Z,3.20
2023-02-05T03:29:11.761Z,3.09
2023-02-05T03:31:43.919Z,3.15
2023-02-05T03:34:30.010Z,3.18
2023-02-05T03:37:13.511Z,3.13
2023-02-05T03:40:00.553Z,3.19
2023-02-05T03:42:33.905Z,3.26
2023-02-05T03:45:23.837Z,3.05
2023-02-05T03:48:07.799Z,3.08
2023-02-05T03:50:44.229Z,3.09
2023-02-05T03:53:32.067Z,3.14
2023-02-05T03:56:24.833Z,3.00
2023-02-05T03:58:55.577Z,3.05
2023-02-05T04:01:24.737Z,3.15
2023-02-05T04:03:51.417Z,3.25
2023-02-05T04:06:18.250Z,3.17
2023-02-05T04:08:47.082Z,3.31
2023-02-05T04:11:14.550Z,3.40
2023-02-05T04:13:43.106Z,3.17
2023-02-05T04:16:11.233Z,3.18
2023-02-05T04:18:38.056Z,3.26
2023-02-05T04:21:04.865Z,3.21
2023-02-05T04:23:32.896Z,3.20
2023-02-05T04:26:00.101Z,3.16
2023-02-05T04:28:33.607Z,3.01
2023-02-05T04:31:02.638Z,3.13
2023-02-05T04:33:32.860Z,3.13
2023-02-05T04:36:00.344Z,3.22
2023-02-05T04:38:27.310Z,3.04
2023-02-05T04:40:53.702Z,3.10
2023-02-05T04:43:20.077Z,3.10
2023-02-05T04:45:46.422Z,2.84
2023-02-05T04:48:13.031Z,2.99
2023-02-05T04:50:39.689Z,3.08
2023-02-05T04:53:06.034Z,3.04
2023-02-05T04:55:33.274Z,3.23
2023-02-05T04:57:59.756Z,3.32
2023-02-05T05:00:26.224Z,3.22
2023-02-05T05:02:52.641Z,3.33
2023-02-05T05:05:19.178Z,3.41
2023-02-05T05:07:45.467Z,3.45
2023-02-05T05:10:12.186Z,3.25
2023-02-05T05:12:38.677Z,3.45
2023-02-05T05:15:06.064Z,3.38
2023-02-05T05:17:33.659Z,3.30
2023-02-05T05:20:00.603Z,3.43
2023-02-05T05:22:26.947Z,3.30
2023-02-05T05:24:53.243Z,3.20
2023-02-05T05:27:19.698Z,3.21
2023-02-05T05:29:46.419Z,3.34
2023-02-05T05:32:13.934Z,3.18
2023-02-05T05:34:40.291Z,3.22
2023-02-05T05:37:06.655Z,3.09
2023-02-05T05:39:51.770Z,3.19
2023-02-05T05:42:36.534Z,3.02
2023-02-05T05:45:02.968Z,3.06
2023-02-05T05:47:29.265Z,3.09
2023-02-05T05:49:55.602Z,2.98
2023-02-05T05:52:21.900Z,2.99
2023-02-05T05:54:48.236Z,2.98
2023-02-05T05:57:14.538Z,2.93
2023-02-05T05:59:40.860Z,3.17
2023-02-05T06:02:07.160Z,3.10
2023-02-05T06:04:33.697Z,3.04
2023-02-05T06:07:00.208Z,3.04
2023-02-05T06:09:26.525Z,3.01
2023-02-05T06:11:52.852Z,3.03
2023-02-05T06:14:19.238Z,3.28
2023-02-05T06:16:45.567Z,3.19
2023-02-05T06:19:11.878Z,3.23
2023-02-05T06:21:38.207Z,3.18
2023-02-05T06:24:04.861Z,3.14
2023-02-05T06:26:31.155Z,3.28
2023-02-05T06:28:57.462Z,3.20
2023-02-05T06:31:24.178Z,3.16
2023-02-05T06:33:50.550Z,3.19
2023-02-05T06:36:16.857Z,3.20
2023-02-05T06:38:43.147Z,3.12
2023-02-05T06:41:09.492Z,3.06
2023-02-05T06:43:35.785Z,3.15
2023-02-05T06:46:02.115Z,3.00
2023-02-05T06:48:28.415Z,3.04
2023-02-05T06:50:54.724Z,3.04
2023-02-05T06:53:21.037Z,3.26
2023-02-05T06:55:47.340Z,3.17
2023-02-05T06:58:13.758Z,3.39
2023-02-05T07:00:40.201Z,3.34
2023-02-05T07:03:06.563Z,3.43
2023-02-05T07:05:34.245Z,3.20
2023-02-05T07:08:01.254Z,3.29
2023-02-05T07:10:27.555Z,3.40
2023-02-05T07:12:53.878Z,3.47
2023-02-05T07:15:20.173Z,3.33
2023-02-05T07:17:46.506Z,3.37
2023-02-05T07:20:12.847Z,3.31
2023-02-05T07:22:39.212Z,3.42
2023-02-05T07:25:05.870Z,3.45
2023-02-05T07:27:32.250Z,3.37
2023-02-05T07:29:59.326Z,3.52
2023-02-05T07:32:25.695Z,3.44
2023-02-05T07:34:52.071Z,3.42
2023-02-05T07:37:21.140Z,3.41
2023-02-05T07:39:47.693Z,3.37
2023-02-05T07:42:13.978Z,3.33
2023-02-05T07:44:48.018Z,3.31
2023-02-05T07:47:14.384Z,3.24
2023-02-05T07:49:40.765Z,3.29
2023-02-05T07:52:07.338Z,3.20
2023-02-05T07:54:33.632Z,3.23
2023-02-05T07:57:01.658Z,3.29
2023-02-05T07:59:28.107Z,3.35
2023-02-05T08:01:54.415Z,3.22
2023-02-05T08:04:20.798Z,3.27
2023-02-05T08:06:47.167Z,3.28
2023-02-05T08:09:14.208Z,3.36
2023-02-05T08:11:40.539Z,3.43
2023-02-05T08:14:06.908Z,3.22
2023-02-05T08:16:33.333Z,3.25
2023-02-05T08:18:59.684Z,3.25
2023-02-05T08:21:25.967Z,3.27
2023-02-05T08:23:52.452Z,3.31
2023-02-05T08:26:19.207Z,3.45
2023-02-05T08:28:45.959Z,3.36
2023-02-05T08:31:15.497Z,3.42
2023-02-05T08:33:41.946Z,3.46
2023-02-05T08:36:11.450Z,3.52
2023-02-05T08:38:37.885Z,3.42
2023-02-05T08:41:12.354Z,3.36
2023-02-05T08:43:40.727Z,3.41
2023-02-05T08:46:08.195Z,3.41
2023-02-05T08:48:34.613Z,3.29
2023-02-05T08:51:00.970Z,3.35
2023-02-05T08:53:27.670Z,3.28
2023-02-05T08:55:58.513Z,3.41
2023-02-05T08:58:25.219Z,3.40
2023-02-05T09:00:52.208Z,3.40
2023-02-05T09:03:19.023Z,3.53
2023-02-05T09:05:45.343Z,3.35
2023-02-05T09:08:11.715Z,3.52
2023-02-05T09:10:38.001Z,3.57
2023-02-05T09:13:04.327Z,3.58
2023-02-05T09:15:30.682Z,3.38
2023-02-05T09:17:56.994Z,3.43
2023-02-05T09:20:23.336Z,3.47
2023-02-05T09:22:50.816Z,3.53
2023-02-05T09:25:17.393Z,3.63
2023-02-05T09:27:43.725Z,3.64
2023-02-05T09:30:10.839Z,3.60
2023-02-05T09:32:37.180Z,3.53
2023-02-05T09:35:03.866Z,3.65
2023-02-05T09:37:30.198Z,3.43
2023-02-05T09:43:00.488Z,3.49
2023-02-05T09:45:38.413Z,3.74
2023-02-05T09:48:08.277Z,3.78
2023-02-05T09:50:35.001Z,3.84
2023-02-05T09:53:13.057Z,3.98
2023-02-05T09:55:44.722Z,3.88
2023-02-05T09:58:19.286Z,3.92
2023-02-05T10:00:58.500Z,3.90
2023-02-05T10:03:34.447Z,3.87
2023-02-05T10:06:29.431Z,3.91
2023-02-05T10:09:17.607Z,3.81
2023-02-05T10:12:13.390Z,3.81
2023-02-05T10:15:00.689Z,3.86
2023-02-05T10:17:57.801Z,3.90
2023-02-05T10:20:44.285Z,3.72
2023-02-05T10:23:17.071Z,3.92
2023-02-05T10:26:13.184Z,3.90
2023-02-05T10:28:45.266Z,3.80
2023-02-05T10:31:11.575Z,3.97
2023-02-05T10:33:49.669Z,3.99
2023-02-05T10:36:21.868Z,4.03
2023-02-05T10:38:49.695Z,4.07
2023-02-05T10:41:38.436Z,3.96
2023-02-05T10:44:14.863Z,4.07
2023-02-05T10:46:43.844Z,4.22
2023-02-05T10:49:18.673Z,4.28
2023-02-05T10:51:46.130Z,4.06
2023-02-05T10:54:22.727Z,4.16
2023-02-05T10:56:49.372Z,4.24
2023-02-05T10:59:22.163Z,4.21
2023-02-05T11:01:49.981Z,4.32
2023-02-05T11:04:24.806Z,4.25
2023-02-05T11:06:52.812Z,4.22
2023-02-05T11:09:25.271Z,4.32
2023-02-05T11:12:25.534Z,4.29
2023-02-05T11:14:58.783Z,4.19
2023-02-05T11:17:29.627Z,4.16
2023-02-05T11:19:58.978Z,4.26
2023-02-05T11:22:31.594Z,4.25
2023-02-05T11:25:26.009Z,4.27
2023-02-05T11:28:03.832Z,4.40
2023-02-05T11:30:50.809Z,4.32
2023-02-05T11:33:27.317Z,4.40
2023-02-05T11:36:06.102Z,4.43
2023-02-05T11:38:51.478Z,4.41
2023-02-05T11:41:47.948Z,4.41
2023-02-05T11:44:37.091Z,4.51
2023-02-05T11:47:03.685Z,4.45
2023-02-05T11:49:36.888Z,4.48
2023-02-05T11:52:15.064Z,4.56
2023-02-05T11:54:46.824Z,4.58
2023-02-05T11:57:22.206Z,4.53
2023-02-05T11:59:56.985Z,4.58
2023-02-05T12:02:26.160Z,4.64
2023-02-05T12:04:58.689Z,4.78
2023-02-05T12:07:28.700Z,4.89
2023-02-05T12:09:59.226Z,4.90
2023-02-05T12:12:40.098Z,5.05
2023-02-05T12:15:21.860Z,5.04
2023-02-05T12:18:06.735Z,5.18
2023-02-05T12:20:40.856Z,5.14
2023-02-05T12:23:23.262Z,5.20
2023-02-05T12:26:14.134Z,5.29
2023-02-05T12:29:18.467Z,5.29
2023-02-05T12:31:51.967Z,5.32
2023-02-05T12:34:57.032Z,5.42
2023-02-05T12:37:43.675Z,5.45
2023-02-05T12:40:34.494Z,5.51
2023-02-05T12:43:23.310Z,5.56
2023-02-05T12:45:58.859Z,5.55
2023-02-05T12:49:00.124Z,5.58
2023-02-05T12:51:40.661Z,5.61
2023-02-05T12:54:25.577Z,5.67
2023-02-05T12:57:00.267Z,5.73
2023-02-05T12:59:58.205Z,5.68
2023-02-05T13:02:49.534Z,5.74
2023-02-05T13:05:22.540Z,5.76
2023-02-05T13:08:27.642Z,5.82
2023-02-05T13:10:59.776Z,5.77
2023-02-05T13:13:31.594Z,5.78
2023-02-05T13:16:13.256Z,5.87
2023-02-05T13:18:44.271Z,5.94
2023-02-05T13:21:35.764Z,5.97
2023-02-05T13:24:43.939Z,6.00
2023-02-05T13:27:45.372Z,6.03
2023-02-05T13:30:15.548Z,6.20
2023-02-05T13:32:44.096Z,6.43
2023-02-05T13:35:10.839Z,6.61
2023-02-05T13:37:55.803Z,6.67
2023-02-05T13:40:34.824Z,6.68
2023-02-05T13:43:27.498Z,6.60
2023-02-05T13:46:18.289Z,6.55
2023-02-05T13:49:25.837Z,6.50
2023-02-05T13:52:25.468Z,6.39
2023-02-05T13:55:16.687Z,6.29
2023-02-05T13:58:11.042Z,6.26
2023-02-05T14:00:40.764Z,6.24
2023-02-05T14:03:09.592Z,6.26
2023-02-05T14:05:38.974Z,6.21
2023-02-05T14:08:06.472Z,6.12
2023-02-05T14:10:41.396Z,6.18
2023-02-05T14:13:19.128Z,6.07
2023-02-05T14:15:46.202Z,5.98
2023-02-05T14:18:40.638Z,6.05
2023-02-05T14:21:45.691Z,6.04
2023-02-05T14:24:40.912Z,6.02
2023-02-05T14:27:40.111Z,6.02
2023-02-05T14:30:39.135Z,6.02
2023-02-05T14:33:25.736Z,6.02
2023-02-05T14:36:15.020Z,6.02
2023-02-05T14:38:45.244Z,5.98
2023-02-05T14:41:20.999Z,5.99
2023-02-05T14:44:06.975Z,5.96
2023-02-05T14:46:44.304Z,5.92
2023-02-05T14:49:33.619Z,5.97
2023-02-05T14:52:07.697Z,5.95
2023-02-05T14:54:41.901Z,5.90
2023-02-05T14:57:35.814Z,5.90
2023-02-05T15:00:23.994Z,5.87
2023-02-05T15:03:05.355Z,5.89
2023-02-05T15:05:39.908Z,5.80
2023-02-05T15:08:12.360Z,5.84
2023-02-05T15:11:32.932Z,5.90
2023-02-05T15:14:21.323Z,5.83
2023-02-05T15:17:09.869Z,5.82
2023-02-05T15:19:50.661Z,5.85
2023-02-05T15:22:28.608Z,5.85
2023-02-05T15:24:56.381Z,5.82
2023-02-05T15:27:45.422Z,5.83
2023-02-05T15:30:20.038Z,5.71
2023-02-05T15:33:05.787Z,5.76
2023-02-05T15:35:34.268Z,5.78
2023-02-05T15:38:27.877Z,5.78
2023-02-05T15:40:54.644Z,5.81
2023-02-05T15:43:26.038Z,5.77
2023-02-05T15:46:00.472Z,5.66
2023-02-05T15:48:30.462Z,5.67
2023-02-05T15:51:16.793Z,5.60
2023-02-05T15:53:49.410Z,5.69
2023-02-05T15:56:35.236Z,5.66
2023-02-05T15:59:12.763Z,5.72
2023-02-05T16:01:47.801Z,5.64
2023-02-05T16:04:35.406Z,5.76
2023-02-05T16:07:02.368Z,5.74
2023-02-05T16:09:31.106Z,5.80
2023-02-05T16:12:10.327Z,5.81
2023-02-05T16:14:36.639Z,5.80
2023-02-05T16:17:11.922Z,5.65
2023-02-05T16:20:15.624Z,5.74
2023-02-05T16:22:55.566Z,5.80
2023-02-05T16:25:34.245Z,5.83
2023-02-05T16:28:10.905Z,5.72
2023-02-05T16:30:40.815Z,5.76
2023-02-05T16:33:26.684Z,5.78
2023-02-05T16:35:53.856Z,5.64
2023-02-05T16:38:23.093Z,5.74
2023-02-05T16:40:53.795Z,5.73
2023-02-05T16:43:37.058Z,5.64
2023-02-05T16:46:06.401Z,5.70
2023-02-05T16:48:36.607Z,5.76
2023-02-05T16:51:04.418Z,5.70
2023-02-05T16:53:36.811Z,5.80
2023-02-05T16:56:47.320Z,5.68
2023-02-05T16:59:19.313Z,5.65
2023-02-05T17:01:45.894Z,5.58
2023-02-05T17:04:41.866Z,5.73
2023-02-05T17:07:21.603Z,5.67
2023-02-05T17:09:49.816Z,5.70
2023-02-05T17:12:22.042Z,5.68
2023-02-05T17:14:59.740Z,5.75
2023-02-05T17:17:27.353Z,5.72
2023-02-05T17:20:14.995Z,5.83
2023-02-05T17:23:04.983Z,5.72
2023-02-05T17:25:36.563Z,5.62
2023-02-05T17:28:04.983Z,5.74
2023-02-05T17:30:32.275Z,5.66
2023-02-05T17:32:58.655Z,5.64
2023-02-05T17:35:25.768Z,5.64
2023-02-05T17:37:55.090Z,5.58
2023-02-05T17:40:21.463Z,5.57
2023-02-05T17:42:48.062Z,5.61
2023-02-05T17:45:19.401Z,5.60
2023-02-05T17:47:45.784Z,5.60
2023-02-05T17:50:12.394Z,5.62
2023-02-05T17:52:39.113Z,5.66
2023-02-05T17:55:06.441Z,5.67
2023-02-05T17:57:34.837Z,5.61
2023-02-05T18:00:01.171Z,5.65
2023-02-05T18:02:27.568Z,5.63
2023-02-05T18:04:53.948Z,5.60
2023-02-05T18:07:29.739Z,5.60
2023-02-05T18:09:56.548Z,5.47
2023-02-05T18:12:23.351Z,5.51
2023-02-05T18:14:50.269Z,5.59
2023-02-05T18:17:17.100Z,5.53
2023-02-05T18:19:43.593Z,5.52
2023-02-05T18:22:10.117Z,5.64
2023-02-05T18:24:36.982Z,5.55
2023-02-05T18:27:04.356Z,5.56
2023-02-05T18:29:30.698Z,5.52
2023-02-05T18:31:57.063Z,5.63
2023-02-05T18:34:23.484Z,5.63
2023-02-05T18:36:49.770Z,5.51
2023-02-05T18:39:16.061Z,5.57
2023-02-05T18:41:42.417Z,5.63
2023-02-05T18:44:08.859Z,5.55
2023-02-05T18:46:35.448Z,5.53
2023-02-05T18:49:01.825Z,5.51
2023-02-05T18:51:28.283Z,5.61
2023-02-05T18:53:54.597Z,5.61
2023-02-05T18:56:26.982Z,5.50
2023-02-05T18:58:58.957Z,5.50
2023-02-05T19:01:25.526Z,5.53
2023-02-05T19:03:55.536Z,5.48
2023-02-05T19:06:22.255Z,5.55
2023-02-05T19:08:49.358Z,5.45
2023-02-05T19:11:20.217Z,5.53
2023-02-05T19:13:47.579Z,5.55
2023-02-05T19:16:16.815Z,5.57
2023-02-05T19:18:45.540Z,5.57
2023-02-05T19:21:19.881Z,5.58
2023-02-05T19:23:50.347Z,5.55
2023-02-05T19:26:18.784Z,5.53
2023-02-05T19:28:46.642Z,5.45
2023-02-05T19:31:15.187Z,5.41
2023-02-05T19:33:42.335Z,5.50
2023-02-05T19:36:10.118Z,5.56
2023-02-05T19:38:38.097Z,5.53
2023-02-05T19:41:16.370Z,5.47
2023-02-05T19:43:50.059Z,5.42
2023-02-05T19:46:21.521Z,5.43
2023-02-05T19:48:48.052Z,5.41
2023-02-05T19:51:15.398Z,5.48
2023-02-05T19:53:45.111Z,5.44
2023-02-05T19:56:17.224Z,5.37
2023-02-05T19:58:45.614Z,5.43
2023-02-05T20:01:21.917Z,5.34
2023-02-05T20:03:48.338Z,5.39
2023-02-05T20:06:16.892Z,5.40
2023-02-05T20:08:44.288Z,5.51
2023-02-05T20:11:11.105Z,5.51
2023-02-05T20:13:39.168Z,5.43
2023-02-05T20:16:10.523Z,5.42
2023-02-05T20:18:38.336Z,5.48
2023-02-05T20:21:10.044Z,5.48
2023-02-05T20:23:36.505Z,5.51
2023-02-05T20:26:04.145Z,5.44
2023-02-05T20:28:32.299Z,5.39
2023-02-05T20:31:18.115Z,5.41
2023-02-05T20:33:44.620Z,5.47
2023-02-05T20:36:12.560Z,5.32
2023-02-05T20:38:39.737Z,5.45
2023-02-05T20:41:14.437Z,5.44
2023-02-05T20:43:40.854Z,5.36
2023-02-05T20:46:08.292Z,5.35
2023-02-05T20:48:34.719Z,5.38
2023-02-05T20:51:15.251Z,5.36
2023-02-05T20:53:41.979Z,5.34
2023-02-05T20:56:14.674Z,5.36
2023-02-05T20:58:41.515Z,5.35
2023-02-05T21:01:13.815Z,5.28
2023-02-05T21:03:43.726Z,5.37
2023-02-05T21:06:10.960Z,5.35
2023-02-05T21:08:39.415Z,5.34
2023-02-05T21:11:06.236Z,5.29
2023-02-05T21:13:33.318Z,5.35
2023-02-05T21:16:00.832Z,5.35
2023-02-05T21:18:28.691Z,5.33
2023-02-05T21:20:55.193Z,5.22
2023-02-05T21:23:21.592Z,5.28
2023-02-05T21:25:47.967Z,5.28
2023-02-05T21:28:14.714Z,5.35
2023-02-05T21:30:42.858Z,5.34
2023-02-05T21:33:09.348Z,5.32
2023-02-05T21:35:38.820Z,5.29
2023-02-05T21:38:05.188Z,5.33
2023-02-05T21:40:31.503Z,5.33
2023-02-05T21:42:57.803Z,5.28
2023-02-05T21:45:24.183Z,5.34
2023-02-05T21:47:50.590Z,5.37
2023-02-05T21:50:16.966Z,5.41
2023-02-05T21:52:43.271Z,5.45
2023-02-05T21:55:09.662Z,5.45
2023-02-05T21:57:35.962Z,5.39
2023-02-05T22:00:04.050Z,5.36
2023-02-05T22:02:38.479Z,5.35
2023-02-05T22:05:05.231Z,5.39
2023-02-05T22:07:31.885Z,5.44
2023-02-05T22:09:58.325Z,5.36
2023-02-05T22:12:24.648Z,5.36
2023-02-05T22:14:50.984Z,5.42
2023-02-05T22:17:17.314Z,5.35
2023-02-05T22:19:43.633Z,5.28
2023-02-05T22:22:09.993Z,5.38
2023-02-05T22:24:36.351Z,5.36
2023-02-05T22:27:02.885Z,5.35
2023-02-05T22:29:29.217Z,5.45
2023-02-05T22:31:55.536Z,5.39
2023-02-05T22:34:22.424Z,5.42
2023-02-05T22:36:48.760Z,5.40
2023-02-05T22:39:15.077Z,5.49
2023-02-05T22:41:43.023Z,5.35
2023-02-05T22:44:11.018Z,5.46
2023-02-05T22:46:40.678Z,5.31
2023-02-05T22:49:07.075Z,5.31
2023-02-05T22:51:39.038Z,5.36
2023-02-05T22:54:06.970Z,5.37
2023-02-05T22:56:33.735Z,5.34
2023-02-05T22:59:02.969Z,5.36
2023-02-05T23:01:34.365Z,5.45
2023-02-05T23:04:02.678Z,5.32
2023-02-05T23:06:34.617Z,5.34
2023-02-05T23:09:06.914Z,5.22
2023-02-05T23:11:34.165Z,5.39
2023-02-05T23:14:01.806Z,5.29
2023-02-05T23:16:32.425Z,5.38
2023-02-05T23:19:01.188Z,5.36
2023-02-05T23:21:29.559Z,5.39
2023-02-05T23:23:56.347Z,5.40
2023-02-05T23:26:25.728Z,5.36
2023-02-05T23:28:54.129Z,5.35
2023-02-05T23:31:21.290Z,5.39
2023-02-05T23:33:47.715Z,5.35
2023-02-05T23:36:14.025Z,5.24
2023-02-05T23:38:40.969Z,5.35
2023-02-05T23:41:07.681Z,5.34
2023-02-05T23:43:35.828Z,5.33
2023-02-05T23:46:03.702Z,5.30
2023-02-05T23:48:30.146Z,5.32
2023-02-05T23:50:59.423Z,5.27
2023-02-05T23:53:25.801Z,5.26
2023-02-05T23:55:53.805Z,5.35
2023-02-05T23:58:23.777Z,5.26
